Aérodrome :
LOGIN :

S'inscrire | Disclaimer

   EN    FR    IT 

 










Légende :    VFR   VFR Marginal   IFR   IFR Intensif   IFR Très Intensif
Visi : 
Plafond : 
>= 8 km
>= 3000ft
5 à 8 km
1000 à 3000 ft
1500m à 5 km
500 à 1000 ft
800 à 1500m
200 à 500 ft
< 800m
< 200 ft
Symboles :   Orages  Brouillard  Fortes neiges  Fortes précipitations  Vent > 20 kt
SIGMETs :   Divers  Orages  Givrage  Turbulence  Onde Orograph.  Cendres Volcan.






- Altitude de l'aérodrome : 3125 ft
- Code IATA : ESB


LTAC - Ankara Esenboga

DERNIER METAR :
  • 191520Z 10003KT 050V170 9999 SCT040 SCT100 M01/M08 Q1019 NOSIG RMK RWY21L 09004KT RWY03L 09004KT RWY21R 10003KT

METARs EXPIRÉS :
  • 191450Z 09009KT 9999 SCT040 SCT100 M00/M08 Q1018 NOSIG RMK RWY21L 09006KT RWY03L 09008KT RWY21R 09005KT
  • 191420Z 02009KT 320V040 9999 SCT040 SCT100 00/M08 Q1018 NOSIG RMK RWY21L 03010KT RWY03L 02009KT RWY21R 05010KT
  • 191350Z 02005KT 340V080 9999 SCT040 SCT100 00/M09 Q1018 NOSIG
  • 191320Z 34004KT 250V050 9999 SCT040 SCT100 01/M10 Q1017 NOSIG RMK RWY21L 05005KT 010V120 RWY03L VRB03KT RWY21R VRB02KT
  • 191250Z 16004KT 130V220 9999 SCT040 SCT100 01/M08 Q1017 NOSIG RMK RWY21L VRB02KT RWY03L VRB02KT RWY21R VRB01KT

TAF TAF LTAC
Valide du 19 à 12h jusqu'au 20 à 12h UTC


191040Z 1912/2012 VRB02KT 9999 SCT040
TEMPO 1912/1915 -SN BKN030 BKN080
TEMPO 2008/2012 01012KT -SN BKN030 BKN080



MET'MAP, la Météo Aéronautique d'un coup d'oeil ! - Copyright ORBIFLY Décembre 2007 - Disclaimer

ORBIFLY MET'MAP TEAM :

Programmation & Développement : Alexandra Zaïnal
Sur une idée originale de : Baudouin d'Aumeries
Assistance à la programmation : Marc-Olivier Méhu
Soutien technique & logistique : Manuel Goepfert

Contact : metmap@orbifly.com




SOURCES & CREDITS :

   NOAA